Time;durP1;ratioP1;P1;durP2;ratioP2;P2;SDS_P1;SDS_P2;PMS_P1;PMS_P2;Temp;Humidity;BMP_temperature;BMP_pressure;BME280_temperature;BME280_humidity;BME280_pressure;Samples;Min_cycle;Max_cycle;Signal;HPM_P1;HPM_P2
2021/05/10 00:01:11;;;;;;;2.47;1.57;;;19.20;88.00;;;;;;5056794;28;20995;-59
2021/05/10 00:03:37;;;;;;;1.80;1.70;;;19.10;87.70;;;;;;5065796;28;20169;-63
2021/05/10 00:06:03;;;;;;;2.37;2.00;;;19.20;88.00;;;;;;5054918;28;20206;-59
2021/05/10 00:08:29;;;;;;;1.50;1.40;;;19.10;88.10;;;;;;5066381;28;20181;-59
2021/05/10 00:10:55;;;;;;;1.40;1.30;;;19.00;88.20;;;;;;5060795;28;20523;-62
2021/05/10 00:13:22;;;;;;;2.30;1.47;;;18.90;88.40;;;;;;5054586;28;20304;-63
2021/05/10 00:15:49;;;;;;;1.77;1.30;;;18.90;88.70;;;;;;5055437;28;20189;-63
2021/05/10 00:18:16;;;;;;;1.47;1.37;;;18.90;88.80;;;;;;5054493;28;20262;-63
2021/05/10 00:20:44;;;;;;;3.47;1.70;;;18.90;89.00;;;;;;5063901;28;20182;-56
2021/05/10 00:23:10;;;;;;;2.00;1.70;;;19.00;89.20;;;;;;5066877;28;20256;-59
2021/05/10 00:25:37;;;;;;;2.90;1.90;;;19.00;89.30;;;;;;5074138;28;20209;-61
2021/05/10 00:28:03;;;;;;;2.17;2.00;;;19.00;88.90;;;;;;5074290;28;20180;-58
2021/05/10 00:30:29;;;;;;;2.23;1.83;;;19.00;89.10;;;;;;5066482;28;20641;-61
2021/05/10 00:32:55;;;;;;;1.70;1.60;;;18.90;89.40;;;;;;5054095;28;20173;-59
2021/05/10 00:35:22;;;;;;;1.60;1.50;;;18.90;89.40;;;;;;5067443;28;20189;-61
2021/05/10 00:37:48;;;;;;;2.70;1.80;;;18.80;89.40;;;;;;5066326;28;20224;-63
2021/05/10 00:40:15;;;;;;;1.77;1.40;;;18.80;89.50;;;;;;5057730;28;20194;-58
2021/05/10 00:42:41;;;;;;;3.07;1.80;;;18.80;90.00;;;;;;5073639;28;20173;-59
2021/05/10 00:45:08;;;;;;;2.33;1.80;;;18.90;90.10;;;;;;5072431;28;20582;-61
2021/05/10 00:47:34;;;;;;;3.27;2.13;;;18.80;90.50;;;;;;5073220;28;20191;-59
2021/05/10 00:49:59;;;;;;;5.37;2.20;;;18.80;90.60;;;;;;5055276;28;20184;-62
2021/05/10 00:52:25;;;;;;;2.93;2.50;;;18.70;90.80;;;;;;5064763;28;20172;-59
2021/05/10 00:54:53;;;;;;;3.83;2.63;;;18.70;90.80;;;;;;5054025;28;20176;-58
2021/05/10 00:57:19;;;;;;;2.20;2.00;;;18.70;91.20;;;;;;5070803;28;20278;-63
2021/05/10 00:59:45;;;;;;;2.10;1.77;;;18.60;91.10;;;;;;5076812;28;20252;-61
2021/05/10 01:02:11;;;;;;;1.93;1.57;;;18.50;91.20;;;;;;5061486;28;20176;-61
2021/05/10 01:04:36;;;;;;;2.30;1.53;;;18.40;91.20;;;;;;5065929;28;20217;-61
2021/05/10 01:07:02;;;;;;;2.13;1.50;;;18.40;91.40;;;;;;5077804;28;20240;-61
2021/05/10 01:09:28;;;;;;;2.10;1.90;;;18.40;91.40;;;;;;5072639;28;20185;-60
2021/05/10 01:11:53;;;;;;;2.57;2.37;;;18.30;91.50;;;;;;5069584;28;20182;-61
2021/05/10 01:14:19;;;;;;;4.13;3.27;;;18.30;91.70;;;;;;5064022;28;20207;-63
2021/05/10 01:16:45;;;;;;;5.13;3.60;;;18.20;91.70;;;;;;5051785;28;20198;-59
2021/05/10 01:19:13;;;;;;;4.57;3.40;;;18.10;91.60;;;;;;5074349;28;20520;-57
2021/05/10 01:21:40;;;;;;;3.90;3.50;;;18.00;91.60;;;;;;5069722;28;20210;-59
2021/05/10 01:24:06;;;;;;;3.93;3.47;;;18.10;91.60;;;;;;5057603;28;20172;-59
2021/05/10 01:26:32;;;;;;;5.83;3.47;;;18.10;91.90;;;;;;5061495;28;20651;-61
2021/05/10 01:28:57;;;;;;;3.83;3.43;;;18.10;92.30;;;;;;5069075;28;20182;-59
2021/05/10 01:31:23;;;;;;;4.40;3.30;;;18.00;92.20;;;;;;5066580;28;20184;-61
2021/05/10 01:33:48;;;;;;;4.43;4.03;;;18.00;92.50;;;;;;5077842;28;20205;-59
2021/05/10 01:36:14;;;;;;;5.03;4.13;;;17.90;92.60;;;;;;5071683;28;20328;-62
2021/05/10 01:38:39;;;;;;;4.90;3.97;;;17.80;92.70;;;;;;5057112;28;20202;-61
2021/05/10 01:41:05;;;;;;;4.67;3.50;;;17.70;92.70;;;;;;5067078;28;20171;-63
2021/05/10 01:43:31;;;;;;;5.03;3.80;;;17.80;92.90;;;;;;5076920;28;20244;-63
2021/05/10 01:45:57;;;;;;;7.50;3.97;;;17.70;93.10;;;;;;5063627;28;20203;-59
2021/05/10 01:48:22;;;;;;;4.23;3.50;;;17.60;93.80;;;;;;5057562;28;20171;-60
2021/05/10 01:50:48;;;;;;;4.30;3.30;;;17.60;94.10;;;;;;5061138;28;20179;-61
2021/05/10 01:53:15;;;;;;;3.67;3.30;;;17.50;93.70;;;;;;5047880;28;20564;-60
2021/05/10 01:55:40;;;;;;;3.63;3.10;;;17.40;93.90;;;;;;5076756;28;20646;-63
2021/05/10 01:58:07;;;;;;;3.43;3.07;;;17.40;94.00;;;;;;5068454;28;20174;-59
2021/05/10 02:00:37;;;;;;;3.17;2.57;;;17.40;94.00;;;;;;5069055;28;20202;-61
2021/05/10 02:03:04;;;;;;;3.83;3.00;;;17.40;94.30;;;;;;5064748;28;20269;-58
2021/05/10 02:05:30;;;;;;;3.70;3.00;;;17.30;94.30;;;;;;5066248;28;20204;-60
2021/05/10 02:07:58;;;;;;;3.50;3.20;;;17.30;94.50;;;;;;5070299;28;20198;-58
2021/05/10 02:10:26;;;;;;;4.00;3.60;;;17.30;94.60;;;;;;5076657;28;20260;-61
2021/05/10 02:13:09;;;;;;;3.67;3.27;;;17.20;94.80;;;;;;5072766;28;20182;-61
2021/05/10 02:15:36;;;;;;;4.10;3.70;;;17.10;95.40;;;;;;5056789;28;20664;-60
2021/05/10 02:18:03;;;;;;;3.67;3.37;;;17.10;95.30;;;;;;5060568;28;20651;-61
2021/05/10 02:20:31;;;;;;;2.83;2.60;;;17.00;95.50;;;;;;5065149;28;20213;-62
2021/05/10 02:23:02;;;;;;;3.20;2.73;;;17.10;95.80;;;;;;5073011;28;20225;-61
2021/05/10 02:25:31;;;;;;;2.23;1.97;;;17.00;95.70;;;;;;5056736;28;20539;-60
2021/05/10 02:27:57;;;;;;;1.63;1.53;;;16.90;95.80;;;;;;5059172;28;20195;-59
2021/05/10 02:30:29;;;;;;;1.70;1.60;;;16.80;96.10;;;;;;5056485;28;20673;-63
2021/05/10 02:32:56;;;;;;;2.73;1.93;;;16.70;96.30;;;;;;5058287;28;20697;-61
2021/05/10 02:35:22;;;;;;;2.07;1.70;;;16.60;96.50;;;;;;5075932;28;20178;-59
2021/05/10 02:37:49;;;;;;;1.53;1.43;;;16.60;96.60;;;;;;5074865;28;20210;-61
2021/05/10 02:40:16;;;;;;;2.07;1.90;;;19.10;98.10;;;;;;5074202;28;20283;-63
2021/05/10 02:42:42;;;;;;;3.03;1.73;;;16.60;97.00;;;;;;5075933;28;20203;-59
2021/05/10 02:45:09;;;;;;;1.90;1.80;;;16.50;97.10;;;;;;5056565;28;20210;-57
2021/05/10 02:47:35;;;;;;;1.87;1.70;;;16.40;97.10;;;;;;5055769;28;20286;-59
2021/05/10 02:50:01;;;;;;;1.83;1.73;;;16.40;97.30;;;;;;5057980;28;20179;-60
2021/05/10 02:52:27;;;;;;;1.87;1.77;;;16.40;97.30;;;;;;5070690;28;20187;-63
2021/05/10 02:54:52;;;;;;;3.70;1.77;;;16.30;97.40;;;;;;5074352;28;20178;-61
2021/05/10 02:57:18;;;;;;;1.60;1.50;;;16.30;97.40;;;;;;5055603;28;20206;-61
2021/05/10 02:59:43;;;;;;;2.13;1.90;;;16.30;97.50;;;;;;5068902;28;20202;-62
2021/05/10 03:02:09;;;;;;;3.67;2.00;;;16.20;97.60;;;;;;5052512;28;20214;-61
2021/05/10 03:04:35;;;;;;;2.10;1.80;;;16.30;97.70;;;;;;5059555;28;20742;-61
2021/05/10 03:07:00;;;;;;;1.90;1.80;;;16.30;98.00;;;;;;5075337;28;20281;-61
2021/05/10 03:09:26;;;;;;;1.93;1.83;;;16.20;98.10;;;;;;5070197;28;20193;-60
2021/05/10 03:11:51;;;;;;;6.57;2.40;;;16.10;98.20;;;;;;5075455;28;20190;-63
2021/05/10 03:14:17;;;;;;;2.10;1.80;;;16.10;98.40;;;;;;5061706;28;20642;-59
2021/05/10 03:16:42;;;;;;;1.83;1.73;;;16.00;98.50;;;;;;5055464;28;20537;-63
2021/05/10 03:19:09;;;;;;;4.70;2.20;;;16.00;98.70;;;;;;5068766;28;20200;-61
2021/05/10 03:21:38;;;;;;;3.17;2.30;;;16.00;98.80;;;;;;5073503;28;20704;-59
2021/05/10 03:24:06;;;;;;;4.73;2.80;;;16.00;99.10;;;;;;5075774;28;20177;-61
2021/05/10 03:26:33;;;;;;;3.53;2.70;;;16.00;99.10;;;;;;5061434;28;20194;-61
2021/05/10 03:28:59;;;;;;;3.87;3.57;;;15.90;99.10;;;;;;5061716;28;20641;-60
2021/05/10 03:31:25;;;;;;;3.70;3.30;;;15.90;99.40;;;;;;5074980;28;20179;-61
2021/05/10 03:33:50;;;;;;;4.10;3.67;;;15.90;99.40;;;;;;5057144;28;20511;-62
2021/05/10 03:36:16;;;;;;;5.73;4.10;;;15.80;99.70;;;;;;5067404;28;20299;-61
2021/05/10 03:38:41;;;;;;;5.47;3.40;;;15.80;99.80;;;;;;5070367;28;20200;-62
2021/05/10 03:41:07;;;;;;;3.33;3.03;;;15.60;99.90;;;;;;5055991;28;20559;-58
2021/05/10 03:43:32;;;;;;;3.40;3.10;;;15.60;99.90;;;;;;5062539;28;20182;-63
2021/05/10 03:45:58;;;;;;;4.60;3.20;;;15.60;99.90;;;;;;5055111;28;20202;-61
2021/05/10 03:48:23;;;;;;;3.60;3.30;;;15.60;99.90;;;;;;5071037;28;20212;-61
2021/05/10 03:50:49;;;;;;;4.67;3.13;;;15.50;99.90;;;;;;5055608;28;20170;-61
2021/05/10 03:53:15;;;;;;;4.87;3.40;;;15.60;99.90;;;;;;5074629;28;20171;-60
2021/05/10 03:55:40;;;;;;;4.23;3.70;;;15.60;99.90;;;;;;5054631;28;20186;-60
2021/05/10 03:58:07;;;;;;;5.20;3.80;;;15.50;99.90;;;;;;5054767;28;20178;-61
2021/05/10 04:00:32;;;;;;;3.90;3.53;;;15.50;99.90;;;;;;5073392;28;20244;-63
2021/05/10 04:03:00;;;;;;;4.90;3.67;;;15.60;99.90;;;;;;5068017;28;20177;-63
2021/05/10 04:06:00;;;;;;;3.83;3.40;;;15.60;99.90;;;;;;5055488;28;20252;-61
2021/05/10 04:13:42;;;;;;;4.80;3.87;;;15.50;99.90;;;;;;5059121;28;20167;-58
2021/05/10 04:16:08;;;;;;;3.10;2.63;;;15.60;99.90;;;;;;5066099;28;20226;-63
2021/05/10 04:18:34;;;;;;;5.10;2.93;;;15.60;99.90;;;;;;5063480;28;20266;-61
2021/05/10 04:21:00;;;;;;;2.97;2.67;;;15.60;99.90;;;;;;5074172;28;20230;-60
2021/05/10 04:23:27;;;;;;;2.87;2.67;;;15.70;99.90;;;;;;5069762;28;20174;-56
2021/05/10 04:25:54;;;;;;;3.80;2.53;;;15.70;99.90;;;;;;5066841;28;20223;-60
2021/05/10 04:28:22;;;;;;;4.57;2.90;;;15.70;99.90;;;;;;5055227;28;20178;-60
2021/05/10 04:30:48;;;;;;;3.17;2.50;;;15.80;99.90;;;;;;5053511;28;20192;-58
2021/05/10 04:33:14;;;;;;;2.50;2.30;;;15.90;99.90;;;;;;5054791;28;20183;-59
2021/05/10 04:35:41;;;;;;;2.80;2.13;;;15.90;99.90;;;;;;5070468;28;20211;-58
2021/05/10 04:38:11;;;;;;;2.47;2.27;;;16.00;99.90;;;;;;5067692;28;20238;-60
2021/05/10 04:40:38;;;;;;;3.40;2.10;;;16.10;99.90;;;;;;5054179;28;20213;-58
2021/05/10 04:43:04;;;;;;;2.13;1.97;;;16.10;99.90;;;;;;5055137;28;20179;-63
2021/05/10 04:45:30;;;;;;;3.03;1.90;;;16.20;99.90;;;;;;5058742;28;20187;-61
2021/05/10 04:47:55;;;;;;;3.13;2.10;;;16.30;99.90;;;;;;5054938;28;20644;-61
2021/05/10 04:50:21;;;;;;;2.90;2.20;;;16.30;99.90;;;;;;5072019;28;20185;-62
2021/05/10 04:52:46;;;;;;;4.20;3.30;;;16.40;99.90;;;;;;5072217;28;20182;-62
2021/05/10 04:55:13;;;;;;;3.93;3.50;;;16.50;99.90;;;;;;5065895;28;20175;-60
2021/05/10 04:57:40;;;;;;;3.67;3.30;;;16.60;99.90;;;;;;5054239;28;20206;-61
2021/05/10 05:00:11;;;;;;;5.23;4.40;;;16.60;99.90;;;;;;5069198;28;20194;-61
2021/05/10 05:02:37;;;;;;;4.57;4.13;;;16.60;99.90;;;;;;5073535;28;20175;-61
2021/05/10 05:05:07;;;;;;;6.03;3.83;;;16.60;99.90;;;;;;5072203;28;20174;-60
2021/05/10 05:07:32;;;;;;;4.87;3.50;;;16.60;99.90;;;;;;5068348;28;20240;-63
2021/05/10 05:09:58;;;;;;;4.47;3.30;;;16.70;99.90;;;;;;5064319;28;20182;-61
2021/05/10 05:12:24;;;;;;;4.17;3.70;;;16.70;99.90;;;;;;5054394;28;20187;-59
2021/05/10 05:14:49;;;;;;;5.87;3.83;;;16.70;99.90;;;;;;5064553;28;20538;-58
2021/05/10 05:17:15;;;;;;;5.13;3.90;;;16.80;99.90;;;;;;5073446;28;20190;-59
2021/05/10 05:19:40;;;;;;;3.13;2.80;;;16.80;99.90;;;;;;5068622;28;20203;-60
2021/05/10 05:22:07;;;;;;;4.30;3.03;;;16.80;99.90;;;;;;5057650;28;20263;-60
2021/05/10 05:24:33;;;;;;;3.97;2.53;;;16.80;99.90;;;;;;5064991;28;20163;-59
2021/05/10 05:26:58;;;;;;;3.13;2.43;;;16.80;99.90;;;;;;5053076;28;20248;-63
2021/05/10 05:29:24;;;;;;;3.83;2.27;;;16.80;99.90;;;;;;5068341;28;20261;-64
2021/05/10 05:31:50;;;;;;;3.07;2.53;;;16.80;99.90;;;;;;5073155;28;20198;-63
2021/05/10 05:34:17;;;;;;;2.50;2.30;;;16.80;99.90;;;;;;5073593;28;20171;-63
2021/05/10 05:36:43;;;;;;;3.50;2.67;;;16.70;99.90;;;;;;5071740;28;20576;-61
2021/05/10 05:39:08;;;;;;;3.73;3.33;;;16.80;99.90;;;;;;5062716;28;20757;-63
2021/05/10 05:41:35;;;;;;;4.47;2.80;;;16.80;99.90;;;;;;5053796;28;20186;-63
2021/05/10 05:44:00;;;;;;;4.77;2.77;;;16.90;99.90;;;;;;5057482;28;20264;-64
2021/05/10 05:46:28;;;;;;;2.50;2.30;;;17.00;99.90;;;;;;5063132;28;20213;-62
2021/05/10 05:48:54;;;;;;;4.47;2.27;;;17.10;99.90;;;;;;5059153;28;20170;-61
2021/05/10 05:51:21;;;;;;;3.10;2.30;;;17.20;99.90;;;;;;5064671;28;20184;-64
2021/05/10 05:53:46;;;;;;;3.00;2.40;;;17.40;99.90;;;;;;5057584;28;20198;-63
2021/05/10 05:56:12;;;;;;;4.33;3.50;;;17.50;99.90;;;;;;5058260;28;20675;-60
2021/05/10 05:58:38;;;;;;;3.13;2.67;;;17.60;99.90;;;;;;5056507;28;20234;-60
2021/05/10 06:01:03;;;;;;;5.10;2.87;;;17.70;99.90;;;;;;5073534;28;20175;-61
2021/05/10 06:03:29;;;;;;;3.90;3.27;;;17.70;99.90;;;;;;5052805;28;20185;-63
2021/05/10 06:05:55;;;;;;;6.77;3.97;;;17.70;99.90;;;;;;5064021;28;20213;-59
2021/05/10 06:08:23;;;;;;;4.70;3.43;;;17.80;99.90;;;;;;5063614;28;20174;-60
2021/05/10 06:10:50;;;;;;;4.60;2.80;;;17.90;99.90;;;;;;5065298;28;20182;-62
2021/05/10 06:13:15;;;;;;;3.40;2.40;;;17.90;99.90;;;;;;5071023;28;20258;-55
2021/05/10 06:15:41;;;;;;;2.97;2.00;;;19.50;99.90;;;;;;5063406;28;20277;-62
2021/05/10 06:18:08;;;;;;;2.87;2.37;;;18.20;99.90;;;;;;5062984;28;20191;-62
2021/05/10 06:20:34;;;;;;;3.33;2.40;;;18.40;99.90;;;;;;5056294;28;20210;-59
2021/05/10 06:23:02;;;;;;;4.40;2.00;;;18.50;99.90;;;;;;5053266;28;20244;-60
2021/05/10 06:25:27;;;;;;;3.40;1.90;;;18.50;99.90;;;;;;5053276;28;20669;-61
2021/05/10 06:27:53;;;;;;;2.70;1.70;;;18.50;99.90;;;;;;5055223;28;20217;-60
2021/05/10 06:30:19;;;;;;;2.33;1.90;;;18.50;99.90;;;;;;5055904;28;20178;-63
2021/05/10 06:32:47;;;;;;;1.70;1.60;;;18.60;99.90;;;;;;5055504;28;20224;-61
2021/05/10 06:35:13;;;;;;;1.87;1.70;;;18.70;99.90;;;;;;5056156;28;20236;-59
2021/05/10 06:37:38;;;;;;;2.00;1.80;;;18.70;99.90;;;;;;5056051;28;20219;-58
2021/05/10 06:40:05;;;;;;;2.70;1.60;;;18.70;99.80;;;;;;5055824;28;20590;-61
2021/05/10 06:42:30;;;;;;;3.43;1.67;;;18.70;99.90;;;;;;5056030;28;20191;-61
2021/05/10 06:44:57;;;;;;;1.63;1.50;;;18.80;99.90;;;;;;5037955;28;20184;-56
2021/05/10 06:47:23;;;;;;;2.40;1.50;;;18.80;98.70;;;;;;5055849;28;20667;-60
2021/05/10 06:49:48;;;;;;;2.93;1.90;;;18.70;98.70;;;;;;5055826;28;20201;-60
2021/05/10 06:52:14;;;;;;;3.20;1.47;;;18.70;99.40;;;;;;5055521;28;20175;-60
2021/05/10 06:54:39;;;;;;;1.73;1.60;;;18.80;99.10;;;;;;5055491;28;20531;-61
2021/05/10 06:57:06;;;;;;;4.00;1.80;;;19.00;99.20;;;;;;5054833;28;20202;-60
2021/05/10 06:59:32;;;;;;;1.80;1.70;;;19.20;99.40;;;;;;5053665;28;20839;-60
2021/05/10 07:01:57;;;;;;;1.90;1.80;;;19.40;98.00;;;;;;5055257;28;20245;-59
2021/05/10 07:04:23;;;;;;;2.43;1.43;;;19.40;98.90;;;;;;5054648;28;20167;-61
2021/05/10 07:06:48;;;;;;;2.63;1.50;;;19.50;98.30;;;;;;5055508;28;20552;-61
2021/05/10 07:09:14;;;;;;;1.90;1.50;;;19.60;97.80;;;;;;5065731;28;20195;-61
2021/05/10 07:11:39;;;;;;;1.53;1.40;;;19.80;97.70;;;;;;5075389;28;20171;-59
2021/05/10 07:14:05;;;;;;;2.03;1.47;;;19.80;97.40;;;;;;5075087;28;20254;-62
2021/05/10 07:16:33;;;;;;;1.50;1.40;;;20.00;98.30;;;;;;5075130;28;20516;-60
2021/05/10 07:18:59;;;;;;;2.80;1.33;;;20.10;98.80;;;;;;5075192;28;20205;-58
2021/05/10 07:21:25;;;;;;;2.50;1.67;;;20.20;98.20;;;;;;5074076;28;20530;-59
2021/05/10 07:23:50;;;;;;;1.80;1.20;;;20.40;98.00;;;;;;5075341;28;20577;-62
2021/05/10 07:26:17;;;;;;;1.97;1.60;;;20.50;97.50;;;;;;5074241;28;20193;-58
2021/05/10 07:28:42;;;;;;;1.73;1.47;;;20.50;97.50;;;;;;5075116;28;20167;-59
2021/05/10 07:31:08;;;;;;;1.47;1.37;;;20.50;97.00;;;;;;5074917;28;20181;-58
2021/05/10 07:33:33;;;;;;;1.70;1.53;;;20.50;96.90;;;;;;5075071;28;20202;-61
2021/05/10 07:35:59;;;;;;;3.90;1.40;;;20.50;96.80;;;;;;5075321;28;20190;-61
2021/05/10 07:38:25;;;;;;;1.43;1.33;;;20.40;97.40;;;;;;5074938;28;20216;-62
2021/05/10 07:40:50;;;;;;;1.70;1.50;;;20.40;98.00;;;;;;5074786;28;20252;-61
2021/05/10 07:43:16;;;;;;;1.30;1.20;;;20.50;97.70;;;;;;5074772;28;20228;-61
2021/05/10 07:45:42;;;;;;;1.40;1.20;;;20.80;97.20;;;;;;5074819;28;20167;-61
2021/05/10 07:48:07;;;;;;;1.93;1.60;;;21.00;97.40;;;;;;5075174;28;20179;-59
2021/05/10 07:50:33;;;;;;;2.73;1.53;;;21.20;97.30;;;;;;5074643;28;20173;-62
2021/05/10 07:52:59;;;;;;;3.80;1.70;;;21.30;97.10;;;;;;5074989;28;20228;-57
2021/05/10 07:55:25;;;;;;;1.87;1.50;;;21.40;97.30;;;;;;5074393;28;20171;-62
2021/05/10 07:57:53;;;;;;;1.77;1.67;;;21.40;96.30;;;;;;5074337;28;20225;-61
2021/05/10 08:00:25;;;;;;;1.67;1.57;;;21.30;95.60;;;;;;5040528;28;20206;-60
2021/05/10 08:02:53;;;;;;;1.50;1.40;;;21.30;95.80;;;;;;5074220;28;20171;-61
2021/05/10 08:05:19;;;;;;;1.50;1.40;;;21.30;95.40;;;;;;5073402;28;20638;-57
2021/05/10 08:07:45;;;;;;;1.60;1.50;;;21.50;96.60;;;;;;5073857;28;20202;-60
2021/05/10 08:10:11;;;;;;;2.20;1.50;;;21.70;95.50;;;;;;5073938;28;20502;-59
2021/05/10 08:12:36;;;;;;;4.73;1.70;;;21.80;95.00;;;;;;5074404;28;20250;-58
2021/05/10 08:15:02;;;;;;;5.28;1.65;;;21.90;94.30;;;;;;5072761;28;20822;-61
2021/05/10 08:17:30;;;;;;;1.70;1.60;;;21.90;94.40;;;;;;5071852;28;20206;-61
2021/05/10 08:19:55;;;;;;;3.17;1.63;;;22.10;95.90;;;;;;5071853;28;20205;-60
2021/05/10 08:22:22;;;;;;;1.90;1.70;;;22.30;94.40;;;;;;5071486;28;20168;-61
2021/05/10 08:24:47;;;;;;;2.10;1.67;;;22.40;93.90;;;;;;5072410;28;20172;-61
2021/05/10 08:27:13;;;;;;;2.83;1.60;;;22.30;93.40;;;;;;5072309;28;20267;-58
2021/05/10 08:29:38;;;;;;;3.90;1.80;;;22.60;94.20;;;;;;5072172;28;20180;-57
2021/05/10 08:32:04;;;;;;;1.60;1.50;;;22.70;94.40;;;;;;5073862;28;20182;-59
2021/05/10 08:34:29;;;;;;;4.03;1.73;;;22.90;93.60;;;;;;5074580;28;20173;-59
2021/05/10 08:36:55;;;;;;;3.50;1.80;;;22.90;93.40;;;;;;5055799;28;20236;-62
2021/05/10 08:39:21;;;;;;;2.65;1.80;;;22.90;92.40;;;;;;5074051;28;20263;-60
2021/05/10 08:41:47;;;;;;;2.30;1.33;;;23.00;93.50;;;;;;5073752;28;20198;-59
2021/05/10 08:44:13;;;;;;;2.30;1.60;;;22.90;92.00;;;;;;5074300;28;20190;-62
2021/05/10 08:46:40;;;;;;;3.05;1.70;;;22.90;91.90;;;;;;5074045;28;20216;-61
2021/05/10 08:49:07;;;;;;;2.13;1.45;;;23.00;91.90;;;;;;5074133;28;20174;-59
2021/05/10 08:51:34;;;;;;;1.98;1.40;;;23.20;91.50;;;;;;5073735;28;20171;-63
2021/05/10 08:54:00;;;;;;;1.95;1.60;;;23.30;91.80;;;;;;5074140;28;20257;-62
2021/05/10 08:56:27;;;;;;;1.50;1.40;;;23.50;91.80;;;;;;5074043;28;20244;-62
2021/05/10 08:58:53;;;;;;;1.73;1.40;;;23.60;90.60;;;;;;5074198;28;20185;-61
2021/05/10 09:01:21;;;;;;;2.20;1.25;;;23.60;90.20;;;;;;5073918;28;20171;-57
2021/05/10 09:03:50;;;;;;;1.73;1.33;;;23.60;88.90;;;;;;5074288;28;20166;-59
2021/05/10 09:06:21;;;;;;;1.58;1.15;;;23.80;91.80;;;;;;5073862;28;20202;-59
2021/05/10 09:08:48;;;;;;;1.30;1.20;;;24.20;93.00;;;;;;5073827;28;20163;-62
2021/05/10 09:11:16;;;;;;;2.65;1.17;;;24.40;92.60;;;;;;5073809;28;20177;-61
2021/05/10 09:13:46;;;;;;;1.38;1.27;;;24.60;88.60;;;;;;5073728;28;20526;-56
2021/05/10 09:16:14;;;;;;;3.13;1.50;;;24.60;87.50;;;;;;5073889;28;20213;-57
2021/05/10 09:18:50;;;;;;;1.52;1.17;;;24.50;88.20;;;;;;5077548;28;20159;-62
2021/05/10 09:21:28;;;;;;;2.15;1.20;;;24.60;86.40;;;;;;5077468;28;20170;-62
2021/05/10 09:23:54;;;;;;;1.55;1.20;;;24.60;84.20;;;;;;5078163;28;20181;-59
2021/05/10 09:26:28;;;;;;;1.75;1.38;;;24.60;84.10;;;;;;5077692;28;20194;-62
2021/05/10 09:28:54;;;;;;;0.95;0.95;;;24.90;85.90;;;;;;5078347;28;20257;-59
2021/05/10 09:31:20;;;;;;;3.03;1.33;;;25.00;84.60;;;;;;5077365;28;20266;-58
2021/05/10 09:33:46;;;;;;;1.20;1.10;;;25.20;80.90;;;;;;5077475;28;20183;-61
2021/05/10 09:36:31;;;;;;;2.03;1.20;;;25.40;82.80;;;;;;5077459;28;20201;-60
2021/05/10 09:38:57;;;;;;;1.85;1.35;;;25.40;79.00;;;;;;5077584;28;20233;-60
2021/05/10 09:41:23;;;;;;;1.02;1.00;;;25.40;79.20;;;;;;5077584;28;20197;-61
2021/05/10 09:44:00;;;;;;;1.15;1.00;;;25.50;80.70;;;;;;5077269;28;20195;-62
2021/05/10 09:46:43;;;;;;;2.78;1.20;;;25.60;73.50;;;;;;5077097;28;20185;-61
2021/05/10 09:49:10;;;;;;;1.27;1.05;;;25.60;76.20;;;;;;5077543;28;20261;-62
2021/05/10 09:51:37;;;;;;;1.33;0.90;;;25.70;74.70;;;;;;5077388;28;20182;-57
2021/05/10 09:54:13;;;;;;;1.27;1.00;;;25.80;78.10;;;;;;5077154;28;20174;-62
2021/05/10 09:56:40;;;;;;;1.35;0.90;;;26.00;78.20;;;;;;5077014;28;20194;-61
2021/05/10 09:59:13;;;;;;;1.25;1.13;;;26.20;71.40;;;;;;5058361;28;20214;-61
2021/05/10 10:01:44;;;;;;;1.30;0.93;;;26.30;69.20;;;;;;5076846;28;20174;-62
2021/05/10 10:04:14;;;;;;;1.63;0.90;;;26.30;66.80;;;;;;5077362;28;20183;-62
2021/05/10 10:06:40;;;;;;;1.45;1.00;;;26.20;67.20;;;;;;5075955;28;20222;-62
2021/05/10 10:09:06;;;;;;;1.10;1.00;;;26.20;66.30;;;;;;5076784;28;20178;-59
2021/05/10 10:11:32;;;;;;;2.40;0.93;;;26.30;65.20;;;;;;5076531;28;20546;-62
2021/05/10 10:13:59;;;;;;;2.72;0.80;;;26.50;66.20;;;;;;5077041;28;20171;-63
2021/05/10 10:16:27;;;;;;;1.15;0.80;;;26.70;67.30;;;;;;5076489;28;20186;-62
2021/05/10 10:18:57;;;;;;;1.60;1.00;;;26.90;66.00;;;;;;5077080;28;20178;-62
2021/05/10 10:21:22;;;;;;;1.85;1.00;;;27.00;61.60;;;;;;5076010;28;20174;-61
2021/05/10 10:23:58;;;;;;;1.85;0.90;;;26.80;59.30;;;;;;5076622;28;20166;-62
2021/05/10 10:26:26;;;;;;;0.90;0.90;;;27.00;64.20;;;;;;5076713;28;20222;-59
2021/05/10 10:28:52;;;;;;;1.02;0.90;;;27.10;62.90;;;;;;5075852;28;20174;-60
2021/05/10 10:31:30;;;;;;;1.10;1.00;;;27.20;63.00;;;;;;5076518;28;20175;-63
2021/05/10 10:34:12;;;;;;;0.93;0.70;;;27.40;60.40;;;;;;5076043;28;20561;-62
2021/05/10 10:36:55;;;;;;;1.25;0.90;;;27.50;63.10;;;;;;5076468;28;20190;-61
2021/05/10 10:39:27;;;;;;;0.80;0.80;;;27.50;62.80;;;;;;5076611;28;20610;-62
2021/05/10 10:41:52;;;;;;;1.35;0.90;;;27.50;58.50;;;;;;5075837;28;20182;-60
2021/05/10 10:44:30;;;;;;;1.88;1.00;;;27.50;60.90;;;;;;5076040;28;20174;-58
2021/05/10 10:46:55;;;;;;;1.85;1.02;;;27.40;60.70;;;;;;5076290;28;20658;-60
2021/05/10 10:49:28;;;;;;;2.17;0.80;;;27.50;59.50;;;;;;5076302;28;20174;-62
2021/05/10 10:51:54;;;;;;;1.70;1.02;;;27.40;56.80;;;;;;5076003;28;20173;-59
2021/05/10 10:54:25;;;;;;;1.55;1.00;;;27.40;56.20;;;;;;5076013;28;20250;-62
2021/05/10 10:56:54;;;;;;;1.50;1.10;;;27.40;58.80;;;;;;5075558;28;20195;-62
2021/05/10 10:59:30;;;;;;;1.60;0.90;;;27.40;56.90;;;;;;5076080;28;20207;-62
2021/05/10 11:01:57;;;;;;;0.90;0.90;;;27.50;60.70;;;;;;5075679;28;20228;-62
2021/05/10 11:04:27;;;;;;;1.02;0.93;;;27.50;59.40;;;;;;5076220;28;20175;-60
2021/05/10 11:06:53;;;;;;;1.45;1.10;;;27.60;56.80;;;;;;5075622;28;20703;-62
2021/05/10 11:09:48;;;;;;;0.93;0.63;;;27.60;55.00;;;;;;5075500;28;20186;-61
2021/05/10 11:12:52;;;;;;;1.35;1.10;;;27.60;57.50;;;;;;4974358;28;20298;-58
2021/05/10 11:15:32;;;;;;;1.70;1.02;;;27.70;56.30;;;;;;4974614;28;20272;-63
2021/05/10 11:17:58;;;;;;;1.13;1.00;;;27.90;55.80;;;;;;4974994;28;20202;-63
2021/05/10 11:20:37;;;;;;;1.52;1.00;;;28.10;57.40;;;;;;4974828;28;20221;-59
2021/05/10 11:23:21;;;;;;;3.05;1.10;;;28.30;55.00;;;;;;4974827;28;20286;-63
2021/05/10 11:25:47;;;;;;;3.75;0.90;;;28.50;53.50;;;;;;4975072;28;20221;-63
2021/05/10 11:28:24;;;;;;;1.55;0.90;;;28.60;54.50;;;;;;4974632;28;20281;-63
2021/05/10 11:31:12;;;;;;;1.33;0.85;;;28.60;55.50;;;;;;4974697;28;20273;-59
2021/05/10 11:33:53;;;;;;;2.80;0.90;;;28.80;52.00;;;;;;4974870;28;20530;-61
2021/05/10 11:36:24;;;;;;;1.13;0.73;;;28.70;54.10;;;;;;4974326;28;20201;-62
2021/05/10 11:38:57;;;;;;;1.45;1.00;;;28.80;53.50;;;;;;4974372;28;20189;-61
2021/05/10 11:41:41;;;;;;;1.65;1.13;;;29.10;54.20;;;;;;4974165;28;20178;-62
2021/05/10 11:44:09;;;;;;;3.78;0.93;;;29.30;52.50;;;;;;4974718;28;20212;-60
2021/05/10 11:46:48;;;;;;;1.95;1.13;;;29.30;51.50;;;;;;4974049;28;20670;-63
2021/05/10 11:49:31;;;;;;;2.63;1.10;;;29.30;53.80;;;;;;5049481;28;20201;-63
2021/05/10 11:52:04;;;;;;;1.83;0.88;;;29.40;55.50;;;;;;5074663;28;20175;-58
2021/05/10 11:54:30;;;;;;;1.10;0.98;;;29.20;51.00;;;;;;5074990;28;20171;-62
2021/05/10 11:56:59;;;;;;;3.05;0.95;;;29.20;53.40;;;;;;5074697;28;20589;-61
2021/05/10 12:02:10;;;;;;;2.80;1.05;;;29.60;54.00;;;;;;5074867;28;20249;-62
2021/05/10 12:05:00;;;;;;;1.83;1.02;;;29.70;52.50;;;;;;5074964;28;20166;-60
2021/05/10 12:07:28;;;;;;;2.65;1.08;;;29.90;50.90;;;;;;5075290;28;20201;-59
2021/05/10 12:10:04;;;;;;;1.50;0.95;;;29.90;52.30;;;;;;5074429;28;20508;-58
2021/05/10 12:12:38;;;;;;;2.50;1.25;;;29.90;49.40;;;;;;5074544;28;20178;-63
2021/05/10 12:15:24;;;;;;;1.10;0.85;;;29.80;48.70;;;;;;5074791;28;20178;-57
2021/05/10 12:18:00;;;;;;;1.23;1.08;;;29.60;51.40;;;;;;5074474;28;20205;-61
2021/05/10 12:20:27;;;;;;;1.25;0.93;;;29.40;49.80;;;;;;5072879;28;20293;-58
2021/05/10 12:22:55;;;;;;;1.77;1.00;;;29.50;53.50;;;;;;5072707;28;20190;-59
2021/05/10 12:25:25;;;;;;;1.52;1.00;;;29.40;53.10;;;;;;5073115;28;20193;-62
2021/05/10 12:28:09;;;;;;;0.95;0.85;;;29.40;53.30;;;;;;5072840;28;20194;-60
2021/05/10 12:30:37;;;;;;;2.30;0.90;;;29.60;55.10;;;;;;5073338;28;20170;-62
2021/05/10 12:33:07;;;;;;;2.03;1.00;;;29.70;51.70;;;;;;5073545;28;20171;-61
2021/05/10 12:35:36;;;;;;;2.42;1.00;;;29.70;49.50;;;;;;5072400;28;20258;-59
2021/05/10 12:38:02;;;;;;;1.13;0.82;;;29.70;50.10;;;;;;5072970;28;20186;-61
2021/05/10 12:40:42;;;;;;;3.03;1.15;;;29.60;49.60;;;;;;5073926;28;20256;-57
2021/05/10 12:43:12;;;;;;;1.10;0.93;;;29.60;50.20;;;;;;5073819;28;20206;-62
2021/05/10 12:45:41;;;;;;;1.48;1.00;;;29.70;49.80;;;;;;5072239;28;20209;-62
2021/05/10 12:48:18;;;;;;;1.10;1.00;;;29.80;50.80;;;;;;5074065;28;20174;-62
2021/05/10 12:50:46;;;;;;;1.55;0.88;;;30.00;47.40;;;;;;5073170;28;20590;-62
2021/05/10 12:53:12;;;;;;;3.35;1.05;;;30.00;49.40;;;;;;5072884;28;20630;-61
2021/05/10 12:55:39;;;;;;;3.10;1.10;;;30.30;51.90;;;;;;5074024;28;20190;-62
2021/05/10 12:58:24;;;;;;;2.85;1.02;;;30.40;48.00;;;;;;5074144;28;20224;-61
2021/05/10 13:00:51;;;;;;;1.95;0.80;;;30.40;47.80;;;;;;5072375;28;20214;-63